createdAt,value
2019-03-13T00:01:08.581Z,72.70
2019-03-13T00:03:37.180Z,72.25
2019-03-13T00:06:05.671Z,71.96
2019-03-13T00:08:34.058Z,71.08
2019-03-13T00:11:02.447Z,70.90
2019-03-13T00:13:30.873Z,69.97
2019-03-13T00:15:59.558Z,68.04
2019-03-13T00:18:27.947Z,67.68
2019-03-13T00:20:56.425Z,67.84
2019-03-13T00:23:24.817Z,67.16
2019-03-13T00:25:53.441Z,66.82
2019-03-13T00:28:22.061Z,66.72
2019-03-13T00:30:50.580Z,66.35
2019-03-13T00:33:19.321Z,65.94
2019-03-13T00:35:47.747Z,65.62
2019-03-13T00:38:16.362Z,65.91
2019-03-13T00:40:44.741Z,65.82
2019-03-13T00:43:13.169Z,66.06
2019-03-13T00:45:41.780Z,65.87
2019-03-13T00:48:10.410Z,65.70
2019-03-13T00:50:39.060Z,65.48
2019-03-13T00:53:07.821Z,65.91
2019-03-13T00:55:36.208Z,65.36
2019-03-13T00:58:04.617Z,65.84
2019-03-13T01:00:40.634Z,66.36
2019-03-13T01:03:10.894Z,66.25
2019-03-13T01:05:43.787Z,66.34
2019-03-13T01:08:12.174Z,66.31
2019-03-13T01:10:40.812Z,66.47
2019-03-13T01:13:09.204Z,66.42
2019-03-13T01:15:37.586Z,66.60
2019-03-13T01:18:06.054Z,66.55
2019-03-13T01:20:34.449Z,66.44
2019-03-13T01:23:03.181Z,66.58
2019-03-13T01:25:31.798Z,66.17
2019-03-13T01:28:00.176Z,66.18
2019-03-13T01:30:30.449Z,66.65
2019-03-13T01:33:03.154Z,66.43
2019-03-13T01:35:36.066Z,66.13
2019-03-13T01:38:04.904Z,66.20
2019-03-13T01:40:33.702Z,66.34
2019-03-13T01:43:02.200Z,66.01
2019-03-13T01:45:30.955Z,66.38
2019-03-13T01:47:59.347Z,66.04
2019-03-13T01:50:27.764Z,66.29
2019-03-13T01:52:56.143Z,66.27
2019-03-13T01:55:24.785Z,66.15
2019-03-13T01:57:53.196Z,66.13
2019-03-13T02:00:21.641Z,66.03
2019-03-13T02:02:50.166Z,65.92
2019-03-13T02:05:18.824Z,65.81
2019-03-13T02:07:47.197Z,66.10
2019-03-13T02:10:16.083Z,66.30
2019-03-13T02:12:44.871Z,65.81
2019-03-13T02:15:16.330Z,66.17
2019-03-13T02:17:44.715Z,66.03
2019-03-13T02:20:13.841Z,65.94
2019-03-13T02:22:42.372Z,65.80
2019-03-13T02:25:16.431Z,65.95
2019-03-13T02:27:45.118Z,65.66
2019-03-13T02:30:16.047Z,65.36
2019-03-13T02:32:44.430Z,65.53
2019-03-13T02:35:12.826Z,65.31
2019-03-13T02:37:41.212Z,65.05
2019-03-13T02:40:14.608Z,65.01
2019-03-13T02:42:42.991Z,65.25
2019-03-13T02:45:14.183Z,65.29
2019-03-13T02:47:42.830Z,65.22
2019-03-13T02:50:15.910Z,65.31
2019-03-13T02:52:44.786Z,65.14
2019-03-13T02:55:13.530Z,65.00
2019-03-13T02:57:41.910Z,64.93
2019-03-13T03:00:13.758Z,64.52
2019-03-13T03:02:43.785Z,64.55
2019-03-13T03:05:12.332Z,64.58
2019-03-13T03:07:40.703Z,64.19
2019-03-13T03:10:12.502Z,64.19
2019-03-13T03:12:40.886Z,64.04
2019-03-13T03:15:18.898Z,64.04
2019-03-13T03:17:47.599Z,63.64
2019-03-13T03:20:18.507Z,63.07
2019-03-13T03:22:46.904Z,63.19
2019-03-13T03:25:16.910Z,63.00
2019-03-13T03:27:45.539Z,63.06
2019-03-13T03:30:22.377Z,62.59
2019-03-13T03:32:50.975Z,62.63
2019-03-13T03:35:19.563Z,62.83
2019-03-13T03:37:47.925Z,62.61
2019-03-13T03:40:23.616Z,62.70
2019-03-13T03:42:52.451Z,62.81
2019-03-13T03:45:20.833Z,63.05
2019-03-13T03:47:49.313Z,63.23
2019-03-13T03:50:18.563Z,63.01
2019-03-13T03:52:47.015Z,62.83
2019-03-13T03:55:16.934Z,62.76
2019-03-13T03:57:45.480Z,62.78
2019-03-13T04:00:16.578Z,62.63
2019-03-13T04:02:45.093Z,62.27
2019-03-13T04:05:14.122Z,61.47
2019-03-13T04:07:43.180Z,61.51
2019-03-13T04:10:12.948Z,61.59
2019-03-13T04:12:41.426Z,61.35
2019-03-13T04:15:17.333Z,61.25
2019-03-13T04:17:46.053Z,61.32
2019-03-13T04:20:16.518Z,61.18
2019-03-13T04:22:45.302Z,60.70
2019-03-13T04:25:16.349Z,60.42
2019-03-13T04:27:45.310Z,60.43
2019-03-13T04:30:13.806Z,60.38
2019-03-13T04:32:42.475Z,60.30
2019-03-13T04:35:10.849Z,60.10
2019-03-13T04:37:39.227Z,60.51
2019-03-13T04:40:12.529Z,60.07
2019-03-13T04:42:40.907Z,60.25
2019-03-13T04:45:10.866Z,59.50
2019-03-13T04:47:39.503Z,59.82
2019-03-13T04:50:13.719Z,59.52
2019-03-13T04:52:42.409Z,59.33
2019-03-13T04:55:12.866Z,59.65
2019-03-13T04:57:41.252Z,59.59
2019-03-13T05:00:17.917Z,59.65
2019-03-13T05:02:46.595Z,58.97
2019-03-13T05:05:37.539Z,59.24
2019-03-13T05:08:05.993Z,58.99
2019-03-13T05:10:34.756Z,59.13
2019-03-13T05:13:03.723Z,59.34
2019-03-13T05:15:32.285Z,59.12
2019-03-13T05:18:00.673Z,59.12
2019-03-13T05:20:29.054Z,58.95
2019-03-13T05:22:57.436Z,58.75
2019-03-13T05:25:25.998Z,58.63
2019-03-13T05:27:54.451Z,58.56
2019-03-13T05:30:22.844Z,58.36
2019-03-13T05:32:51.224Z,58.30
2019-03-13T05:35:19.906Z,58.19
2019-03-13T05:37:48.285Z,57.92
2019-03-13T05:40:16.734Z,57.81
2019-03-13T05:42:45.141Z,57.86
2019-03-13T05:45:13.891Z,58.04
2019-03-13T05:47:42.282Z,58.15
2019-03-13T05:50:11.509Z,57.63
2019-03-13T05:52:39.906Z,57.39
2019-03-13T05:55:08.346Z,58.03
2019-03-13T05:57:36.744Z,57.97
2019-03-13T06:00:10.261Z,58.00
2019-03-13T06:02:38.661Z,57.98
2019-03-13T06:05:08.485Z,57.73
2019-03-13T06:07:36.962Z,58.47
2019-03-13T06:10:10.914Z,58.27
2019-03-13T06:12:39.406Z,57.88
2019-03-13T06:15:10.807Z,58.43
2019-03-13T06:17:39.216Z,58.35
2019-03-13T06:20:10.901Z,58.16
2019-03-13T06:22:39.503Z,57.99
2019-03-13T06:25:10.745Z,57.87
2019-03-13T06:27:39.117Z,57.77
2019-03-13T06:30:13.070Z,57.56
2019-03-13T06:32:41.493Z,57.37
2019-03-13T06:35:10.701Z,57.23
2019-03-13T06:37:39.095Z,57.87
2019-03-13T06:40:10.616Z,57.89
2019-03-13T06:42:40.065Z,57.98
2019-03-13T06:45:14.027Z,57.46
2019-03-13T06:47:42.410Z,57.36
2019-03-13T06:50:16.420Z,57.49
2019-03-13T06:52:44.812Z,58.01
2019-03-13T06:55:13.192Z,58.57
2019-03-13T06:57:41.836Z,58.44
2019-03-13T07:00:29.732Z,58.42
2019-03-13T07:02:59.836Z,57.70
2019-03-13T07:05:29.943Z,58.11
2019-03-13T07:07:59.991Z,58.32
2019-03-13T07:10:32.918Z,58.42
2019-03-13T07:13:19.110Z,58.87
2019-03-13T07:16:01.038Z,59.17
2019-03-13T07:18:33.735Z,59.10
2019-03-13T07:21:06.785Z,59.03
2019-03-13T07:23:52.163Z,60.54
2019-03-13T07:26:22.413Z,60.84
2019-03-13T07:28:55.106Z,61.05
2019-03-13T07:31:25.152Z,60.26
2019-03-13T07:34:01.170Z,60.06
2019-03-13T07:36:33.991Z,59.11
2019-03-13T07:39:04.023Z,59.24
2019-03-13T07:41:35.627Z,59.32
2019-03-13T07:44:15.143Z,59.37
2019-03-13T07:46:48.555Z,59.18
2019-03-13T07:49:30.830Z,58.98
2019-03-13T07:52:01.171Z,58.60
2019-03-13T07:54:34.147Z,58.83
2019-03-13T07:57:13.381Z,58.35
2019-03-13T07:59:55.437Z,58.29
2019-03-13T08:02:41.878Z,58.35
2019-03-13T08:05:12.857Z,58.41
2019-03-13T08:07:46.111Z,58.87
2019-03-13T08:10:34.525Z,58.45
2019-03-13T08:13:20.751Z,58.42
2019-03-13T08:16:00.509Z,58.56
2019-03-13T08:18:45.608Z,58.52
2019-03-13T08:21:21.631Z,58.85
2019-03-13T08:24:00.675Z,58.98
2019-03-13T08:26:33.560Z,59.05
2019-03-13T08:29:12.884Z,59.21
2019-03-13T08:31:52.153Z,59.32
2019-03-13T08:34:40.242Z,59.84
2019-03-13T08:37:10.372Z,60.08
2019-03-13T08:39:43.473Z,60.35
2019-03-13T08:42:16.498Z,60.79
2019-03-13T08:44:55.315Z,60.85
2019-03-13T08:47:25.383Z,61.02
2019-03-13T08:50:07.914Z,61.04
2019-03-13T08:52:41.312Z,61.39
2019-03-13T08:55:20.374Z,61.21
2019-03-13T08:57:50.714Z,61.23
2019-03-13T09:00:20.739Z,61.32
2019-03-13T09:02:50.804Z,61.51
2019-03-13T09:05:36.890Z,61.53
2019-03-13T09:08:13.263Z,61.62
2019-03-13T09:10:55.770Z,61.20
2019-03-13T09:13:31.931Z,61.22
2019-03-13T09:16:14.342Z,61.32
2019-03-13T09:18:44.363Z,61.41
2019-03-13T09:21:14.681Z,61.47
2019-03-13T09:24:00.892Z,61.74
2019-03-13T09:26:33.865Z,61.76
2019-03-13T09:29:07.159Z,61.93
2019-03-13T09:31:40.559Z,62.56
2019-03-13T09:34:13.540Z,62.01
2019-03-13T09:36:55.228Z,62.08
2019-03-13T09:39:25.490Z,62.77
2019-03-13T09:42:04.740Z,62.23
2019-03-13T09:44:43.731Z,61.50
2019-03-13T09:47:30.149Z,61.48
2019-03-13T09:50:03.139Z,60.87
2019-03-13T09:52:33.425Z,60.50
2019-03-13T09:55:12.399Z,60.23
2019-03-13T09:57:57.433Z,59.57
2019-03-13T10:00:44.561Z,59.85
2019-03-13T10:03:24.392Z,59.75
2019-03-13T10:05:57.386Z,59.99
2019-03-13T10:08:36.820Z,59.22
2019-03-13T10:11:06.950Z,59.68
2019-03-13T10:13:37.036Z,59.32
2019-03-13T10:16:07.380Z,58.96
2019-03-13T10:18:43.244Z,59.70
2019-03-13T10:21:13.562Z,59.16
2019-03-13T10:23:55.540Z,59.47
2019-03-13T10:26:42.065Z,59.43
2019-03-13T10:29:14.566Z,59.47
2019-03-13T10:32:02.579Z,59.69
2019-03-13T10:34:44.543Z,59.77
2019-03-13T10:37:30.615Z,59.41
2019-03-13T10:40:17.072Z,59.82
2019-03-13T10:43:03.164Z,62.20
2019-03-13T10:45:39.428Z,64.22
2019-03-13T10:48:15.384Z,63.98
2019-03-13T10:50:51.140Z,65.53
2019-03-13T10:53:21.176Z,65.97
2019-03-13T10:56:07.409Z,66.03
2019-03-13T10:58:40.746Z,67.03
2019-03-13T11:01:19.890Z,67.58
2019-03-13T11:03:52.594Z,68.25
2019-03-13T11:06:28.722Z,67.31
2019-03-13T11:08:59.147Z,68.64
2019-03-13T11:11:29.483Z,69.16
2019-03-13T11:13:59.573Z,69.28
2019-03-13T11:16:29.917Z,68.68
2019-03-13T11:19:03.460Z,67.87
2019-03-13T11:21:42.097Z,68.99
2019-03-13T11:24:15.332Z,69.39
2019-03-13T11:27:03.626Z,68.06
2019-03-13T11:29:34.003Z,68.79
2019-03-13T11:32:04.021Z,68.02
2019-03-13T11:34:43.249Z,67.99
2019-03-13T11:37:22.803Z,68.11
2019-03-13T11:40:08.659Z,68.39
2019-03-13T11:42:50.574Z,68.11
2019-03-13T11:45:37.396Z,67.61
2019-03-13T11:48:13.047Z,66.46
2019-03-13T11:50:55.343Z,66.12
2019-03-13T11:53:28.129Z,66.29
2019-03-13T11:55:58.144Z,65.53
2019-03-13T11:58:28.468Z,65.96
2019-03-13T12:00:58.484Z,66.10
2019-03-13T12:03:34.959Z,66.37
2019-03-13T12:06:19.919Z,65.86
2019-03-13T12:09:05.498Z,66.28
2019-03-13T12:11:48.009Z,66.34
2019-03-13T12:14:34.208Z,66.42
2019-03-13T12:17:04.228Z,65.94
2019-03-13T12:19:49.505Z,65.87
2019-03-13T12:22:22.477Z,66.12
2019-03-13T12:24:52.820Z,66.32
2019-03-13T12:27:39.217Z,65.36
2019-03-13T12:30:14.990Z,65.24
2019-03-13T12:32:48.259Z,65.79
2019-03-13T12:35:24.834Z,65.79
2019-03-13T12:37:58.028Z,65.93
2019-03-13T12:40:43.404Z,65.80
2019-03-13T12:43:28.186Z,66.23
2019-03-13T12:46:07.605Z,67.26
2019-03-13T12:48:37.616Z,67.60
2019-03-13T12:51:07.814Z,68.32
2019-03-13T12:53:37.854Z,68.41
2019-03-13T12:56:07.869Z,67.69
2019-03-13T12:58:38.204Z,67.70
2019-03-13T13:01:08.233Z,67.25
2019-03-13T13:03:38.255Z,66.80
2019-03-13T13:06:20.516Z,66.75
2019-03-13T13:25:22.095Z,69.54
2019-03-13T13:27:50.471Z,69.54
2019-03-13T13:30:19.201Z,69.73
2019-03-13T13:32:47.595Z,70.38
2019-03-13T13:35:16.119Z,70.72
2019-03-13T13:37:44.512Z,71.36
2019-03-13T13:40:15.526Z,71.36
2019-03-13T13:42:43.965Z,71.72
2019-03-13T13:45:33.107Z,72.67
2019-03-13T13:48:01.087Z,73.36
2019-03-13T13:50:29.476Z,73.50
2019-03-13T13:52:57.972Z,72.61
2019-03-13T13:55:26.439Z,72.75
2019-03-13T13:57:54.918Z,73.34
2019-03-13T14:00:24.005Z,73.08
2019-03-13T14:02:52.472Z,72.63
2019-03-13T14:05:21.272Z,72.27
2019-03-13T14:07:49.899Z,71.47
2019-03-13T14:10:18.513Z,71.41
2019-03-13T14:12:46.887Z,70.75
2019-03-13T14:15:16.113Z,70.26
2019-03-13T14:17:44.477Z,70.56
2019-03-13T14:20:14.497Z,70.43
2019-03-13T14:22:42.902Z,70.02
2019-03-13T14:25:12.928Z,70.78
2019-03-13T14:27:41.702Z,70.39
2019-03-13T14:30:16.334Z,70.89
2019-03-13T14:32:44.839Z,70.95
2019-03-13T14:35:13.714Z,71.89
2019-03-13T14:37:42.216Z,71.89
2019-03-13T14:40:12.837Z,72.28
2019-03-13T14:42:41.215Z,72.85
2019-03-13T14:45:12.222Z,72.33
2019-03-13T14:47:40.600Z,71.75
2019-03-13T14:50:12.299Z,71.93
2019-03-13T14:52:40.690Z,72.05
2019-03-13T14:55:11.577Z,72.30
2019-03-13T14:57:40.135Z,72.30
2019-03-13T15:00:20.020Z,71.70
2019-03-13T15:02:48.912Z,73.49
2019-03-13T15:05:17.914Z,73.49
2019-03-13T15:07:46.362Z,73.84
2019-03-13T15:10:21.753Z,75.22
2019-03-13T15:12:50.410Z,75.53
2019-03-13T15:15:23.900Z,75.50
2019-03-13T15:17:53.284Z,76.09
2019-03-13T15:20:31.079Z,76.69
2019-03-13T15:22:59.483Z,77.13
2019-03-13T15:25:27.864Z,76.82
2019-03-13T15:27:56.471Z,75.49
2019-03-13T15:30:29.721Z,75.38
2019-03-13T15:32:58.103Z,74.62
2019-03-13T15:35:26.724Z,73.72
2019-03-13T15:37:55.178Z,73.21
2019-03-13T15:40:23.825Z,73.48
2019-03-13T15:42:52.267Z,72.78
2019-03-13T15:45:22.800Z,72.39
2019-03-13T15:47:51.246Z,72.76
2019-03-13T15:50:19.948Z,73.09
2019-03-13T15:52:48.440Z,73.20
2019-03-13T15:55:18.729Z,73.15
2019-03-13T15:57:47.118Z,73.15
2019-03-13T16:00:18.629Z,73.97
2019-03-13T16:02:47.105Z,74.13
2019-03-13T16:05:15.863Z,74.53
2019-03-13T16:07:44.256Z,74.84
2019-03-13T16:10:20.081Z,75.36
2019-03-13T16:12:48.593Z,75.33
2019-03-13T16:15:20.805Z,75.83
2019-03-13T16:17:49.632Z,76.07
2019-03-13T16:20:18.826Z,76.33
2019-03-13T16:22:58.027Z,76.64
2019-03-13T16:25:26.408Z,77.04
2019-03-13T16:27:54.872Z,77.67
2019-03-13T16:30:26.622Z,79.30
2019-03-13T16:32:55.559Z,80.60
2019-03-13T16:35:26.532Z,82.20
2019-03-13T16:37:54.365Z,82.55
2019-03-13T16:40:22.867Z,83.41
2019-03-13T16:42:51.357Z,83.42
2019-03-13T16:45:21.554Z,82.81
2019-03-13T16:47:50.026Z,82.63
2019-03-13T16:50:23.515Z,82.32
2019-03-13T16:52:52.158Z,82.22
2019-03-13T16:55:21.291Z,82.26
2019-03-13T16:57:49.723Z,81.96
2019-03-13T17:00:20.906Z,81.89
2019-03-13T17:02:49.420Z,81.55
2019-03-13T17:05:18.984Z,81.57
2019-03-13T17:07:49.764Z,80.95
2019-03-13T17:10:28.754Z,81.28
2019-03-13T17:12:57.372Z,81.26
2019-03-13T17:15:26.507Z,81.50
2019-03-13T17:17:55.301Z,81.33
2019-03-13T17:20:40.911Z,82.29
2019-03-13T17:23:09.630Z,83.23
2019-03-13T17:25:38.171Z,83.93
2019-03-13T17:28:06.624Z,84.67
2019-03-13T17:30:35.150Z,84.77
2019-03-13T17:33:04.545Z,84.64
2019-03-13T17:35:33.028Z,84.76
2019-03-13T17:38:01.445Z,84.52
2019-03-13T17:40:33.709Z,83.81
2019-03-13T17:43:02.173Z,83.53
2019-03-13T17:45:30.959Z,83.06
2019-03-13T17:47:59.884Z,82.86
2019-03-13T17:50:28.641Z,82.27
2019-03-13T17:52:57.669Z,82.08
2019-03-13T17:55:27.371Z,82.15
2019-03-13T17:57:55.823Z,82.22
2019-03-13T18:00:44.879Z,82.04
2019-03-13T18:03:13.617Z,82.05
2019-03-13T18:05:42.200Z,82.73
2019-03-13T18:08:10.655Z,82.75
2019-03-13T18:10:39.096Z,82.58
2019-03-13T18:13:07.697Z,82.69
2019-03-13T18:15:36.860Z,82.66
2019-03-13T18:18:05.467Z,82.90
2019-03-13T18:20:34.068Z,83.04
2019-03-13T18:23:02.504Z,82.66
2019-03-13T18:25:30.987Z,82.83
2019-03-13T18:27:59.481Z,82.99
2019-03-13T18:30:35.498Z,83.08
2019-03-13T18:33:04.574Z,83.25
2019-03-13T18:35:33.019Z,83.12
2019-03-13T18:38:01.604Z,83.45
2019-03-13T18:40:30.064Z,83.16
2019-03-13T18:42:58.466Z,83.12
2019-03-13T18:45:34.524Z,83.14
2019-03-13T18:48:02.912Z,83.35
2019-03-13T18:50:31.614Z,83.41
2019-03-13T18:53:00.018Z,83.13
2019-03-13T18:55:32.631Z,83.08
2019-03-13T18:58:01.253Z,83.07
2019-03-13T19:00:34.827Z,83.07
2019-03-13T19:03:03.965Z,83.09
2019-03-13T19:05:34.860Z,83.09
2019-03-13T19:08:03.657Z,83.40
2019-03-13T19:10:33.044Z,83.54
2019-03-13T19:13:01.863Z,83.32
2019-03-13T19:15:31.297Z,83.03
2019-03-13T19:18:00.982Z,82.93
2019-03-13T19:20:30.752Z,82.87
2019-03-13T19:23:00.892Z,82.48
2019-03-13T19:25:29.496Z,82.22
2019-03-13T19:27:58.330Z,81.96
2019-03-13T19:30:37.391Z,82.04
2019-03-13T19:33:04.879Z,82.18
2019-03-13T19:35:33.317Z,82.32
2019-03-13T19:38:05.713Z,82.23
2019-03-13T19:40:34.194Z,81.99
2019-03-13T19:43:02.907Z,82.08
2019-03-13T19:45:45.979Z,81.96
2019-03-13T19:48:14.793Z,81.80
2019-03-13T19:50:44.181Z,81.90
2019-03-13T19:53:12.787Z,81.53
2019-03-13T19:55:41.365Z,80.94
2019-03-13T19:58:09.760Z,80.58
2019-03-13T20:00:38.309Z,80.31
2019-03-13T20:03:15.405Z,80.11
2019-03-13T20:05:46.004Z,80.23
2019-03-13T20:08:14.338Z,80.17
2019-03-13T20:10:43.106Z,80.31
2019-03-13T20:13:11.800Z,79.94
2019-03-13T20:15:40.318Z,79.26
2019-03-13T20:18:08.729Z,79.63
2019-03-13T20:20:37.257Z,79.33
2019-03-13T20:23:08.119Z,79.74
2019-03-13T20:25:36.619Z,79.97
2019-03-13T20:28:05.502Z,80.10
2019-03-13T20:30:34.539Z,79.85
2019-03-13T20:33:03.185Z,80.23
2019-03-13T20:35:31.607Z,80.36
2019-03-13T20:38:00.001Z,80.32
2019-03-13T20:40:29.083Z,80.33
2019-03-13T20:42:57.568Z,80.68
2019-03-13T20:45:27.456Z,80.82
2019-03-13T20:47:56.141Z,80.77
2019-03-13T20:50:36.083Z,80.63
2019-03-13T20:52:55.037Z,80.65
2019-03-13T20:55:24.462Z,80.75
2019-03-13T20:57:52.915Z,80.83
2019-03-13T21:00:23.935Z,80.67
2019-03-13T21:02:54.049Z,80.67
2019-03-13T21:05:22.746Z,80.58
2019-03-13T21:07:51.285Z,80.64
2019-03-13T21:10:19.822Z,80.45
2019-03-13T21:12:48.274Z,80.22
2019-03-13T21:15:24.881Z,80.14
2019-03-13T21:17:53.600Z,80.03
2019-03-13T21:20:22.430Z,79.78
2019-03-13T21:22:50.963Z,79.73
2019-03-13T21:25:23.021Z,79.66
2019-03-13T21:27:51.720Z,79.62
2019-03-13T21:30:26.986Z,79.51
2019-03-13T21:32:55.660Z,79.42
2019-03-13T21:35:24.405Z,79.40
2019-03-13T21:37:53.167Z,79.35
2019-03-13T21:40:26.025Z,79.32
2019-03-13T21:42:55.292Z,79.11
2019-03-13T21:45:24.091Z,78.82
2019-03-13T21:47:52.530Z,78.76
2019-03-13T21:50:21.780Z,78.83
2019-03-13T21:52:50.407Z,78.92
2019-03-13T21:55:19.320Z,79.07
2019-03-13T21:57:51.384Z,79.16
2019-03-13T22:00:28.052Z,79.27
2019-03-13T22:02:56.529Z,79.54
2019-03-13T22:05:26.985Z,79.35
2019-03-13T22:07:55.175Z,79.26
2019-03-13T22:10:23.635Z,79.14
2019-03-13T22:12:52.532Z,78.90
2019-03-13T22:15:22.088Z,78.72
2019-03-13T22:17:50.621Z,78.24
2019-03-13T22:20:19.770Z,78.29
2019-03-13T22:22:48.219Z,77.93
2019-03-13T22:25:20.861Z,77.87
2019-03-13T22:27:49.939Z,77.80
2019-03-13T22:30:22.658Z,77.58
2019-03-13T22:32:51.521Z,77.13
2019-03-13T22:35:20.115Z,77.00
2019-03-13T22:37:49.642Z,76.69
2019-03-13T22:40:19.090Z,76.40
2019-03-13T22:42:47.959Z,75.86
2019-03-13T22:45:21.049Z,75.52
2019-03-13T22:47:49.819Z,75.71
2019-03-13T22:50:24.996Z,75.62
2019-03-13T22:52:53.380Z,74.61
2019-03-13T22:55:22.044Z,74.87
2019-03-13T22:57:50.429Z,74.67
2019-03-13T23:00:32.264Z,75.00
2019-03-13T23:03:00.898Z,74.76
2019-03-13T23:05:29.513Z,74.93
2019-03-13T23:07:58.169Z,74.96
2019-03-13T23:10:32.595Z,74.73
2019-03-13T23:13:01.447Z,74.88
2019-03-13T23:15:29.948Z,74.72
2019-03-13T23:17:58.621Z,74.83
2019-03-13T23:20:27.110Z,75.18
2019-03-13T23:22:55.509Z,75.08
2019-03-13T23:25:24.073Z,74.97
2019-03-13T23:27:52.601Z,74.98
2019-03-13T23:30:21.232Z,75.06
2019-03-13T23:32:49.628Z,74.92
2019-03-13T23:35:18.286Z,74.69
2019-03-13T23:37:46.671Z,74.80
2019-03-13T23:40:15.124Z,74.78
2019-03-13T23:42:43.593Z,75.24
2019-03-13T23:45:12.448Z,75.74
2019-03-13T23:47:40.844Z,77.41
2019-03-13T23:50:11.447Z,78.37
2019-03-13T23:52:39.838Z,79.02
2019-03-13T23:55:08.683Z,79.42
2019-03-13T23:57:37.279Z,79.16
